Details From PABR - WILEY POST WILL ROGERS MEM
To PAKP - ANAKTUVUK PASS
Flight Number -
Tags generated
Created
Modified
Stats Distance 220 nm / 407 km
Max Altitude 27,900 ft / 8,504 m
Waypoints 7
Social Downloads 0
Likes 0
Share VATSIM

Download

Looking for another format? Having issues loading an existing format? Contact us
Advertisement - Login to hide

Notes

Basic altitude profile: - Ascent Rate: 2500ft/min - Ascent Speed: 250kts - Cruise Altitude: 35000ft - Cruise Speed: 420kts - Descent Rate: 1500ft/min - Descent Speed: 250kts Options: - Use NATs: yes - Use PACOTS: yes - Use low airways: yes - Use high airways: yes

Route

PABR LEDHO V444 CHIPS T232 BRONX 7000N15500W WARRT PAKP

ID Type Via Altitude Latitude Longitude Leg Dist Tot Dist Heading (true) Name
O PABR APT - 0 ft / 0 m 71.28466˚ -156.76875˚ - 0 nm - WILEY POST WILL ROGERS MEM
LEDHO FIX - 5,800 ft / 1,768 m 71.03346˚ -156.43604˚ 16 nm 16 nm 157° / 157° -
CHIPS FIX V444 (AWY-LO) 17,000 ft / 5,182 m 70.47724˚ -155.64643˚ 36 nm 53 nm 155° / 155° -
BRONX FIX T232 (AWY-LO) 17,500 ft / 5,334 m 70.06901˚ -155.09866˚ 26 nm 80 nm 155° / 156° -
7000N15500W LATLON - 27,900 ft / 8,504 m 70.00000˚ -155.00000˚ 4 nm 84 nm 154° / 154° -
WARRT FIX - 15,700 ft / 4,785 m 69.35264˚ -153.00001˚ 57 nm 141 nm 132° / 134° -
O PAKP APT - 0 ft / 0 m 68.13360˚ -151.74334˚ 78 nm 219 nm 159° / 160° ANAKTUVUK PASS

Altitude Profile

Advertisement - Login to hide

Weather


0- 5 10 15 20 25 30 35+ Temperature / ° C

Clouds and Precipitation
Forecast for 2017-12-11 18:00 UTC. Updated 2 hours ago

Ground ~20,000 ft ~40,000 ft Winds

PABR

Details ICAO PABR (BRW)
Name WILEY POST WILL ROGERS MEM
Region USA (Alaska)
Timezone America/Anchorage (UTC-9.0)
Stats Elevation 44 ft / 13 m (AMSL)
Location 71.284660° -156.768746°
Runways 1
Magnetic Variation 14.528° E

METAR

PABR 111653Z 05025G33KT 5SM BLSN OVC060 M13/M16 A2988

Decode

TAF

TAF AMD PABR 111545Z 1116/1212 06024G32KT 4SM -SN BLSN SCT025 BKN040 FM111800 06025G35KT 1/2SM SN BLSN BKN015 OVC025

Decode

Departure Runways

ID Width Length Bearing (true) Bearing (mag) Surface Threshold Offset Overrun Length
07 151 ft / 46 m 7,107 ft / 2,166 m 91.11° 76.58° Asphalt 0 ft / 0 m 0 ft / 0 m
25 151 ft / 46 m 7,107 ft / 2,166 m 271.17° 256.64° Asphalt 0 ft / 0 m 0 ft / 0 m

PAKP

Details ICAO PAKP (AKP)
Name ANAKTUVUK PASS
Region USA (Alaska)
Timezone America/Anchorage (UTC-9.0)
Stats Elevation 2,103 ft / 641 m (AMSL)
Location 68.133599° -151.743340°
Runways 1
Magnetic Variation 16.493° E

METAR

PAKP 111722Z AUTO 03010KT 1 3/4SM -SN OVC032 M17/M19 A2933 RMK AO2 VIS 1V4 P0000 FZRANO

Decode

TAF

Not found

Destination Runways

ID Width Length Bearing (true) Bearing (mag) Surface Threshold Offset Overrun Length
01 100 ft / 30 m 4,785 ft / 1,458 m 38.32° 21.83° Gravel 0 ft / 0 m 600 ft / 183 m
19 100 ft / 30 m 4,785 ft / 1,458 m 218.34° 201.85° Gravel 0 ft / 0 m 275 ft / 84 m